Terminal Aerodrome Forecast
Issued by NWS Tuscon, AZ

Home | Current Version | Previous Version | Text Only | Print | Product List | Glossary On
Versions: 1 2 3 4 5 6 7 8 9 10 11 12 13 14 15 16 17 18 19 20 21
000
FTUS45 KTWC 042300
TAFDUG
TAF
KDUG 042330Z 0500/0524 29009KT P6SM SCT060 BKN080
     FM050300 34006KT P6SM SCT060
     FM051400 09018G26KT P6SM FEW060=

USA.gov is the U.S. government's official web portal to all federal, state and local government web resources and services.